TimeCST,TemperatureF,Dew PointF,Humidity,Sea Level PressureIn,VisibilityMPH,Wind Direction,Wind SpeedMPH,Gust SpeedMPH,PrecipitationIn,Events,Conditions,WindDirDegrees,DateUTC
12:52 AM,46.0,37.9,73,30.09,10.0,South,12.7,-,N/A,,Clear,180,2013-11-09 06:52:00
1:52 AM,45.0,37.9,76,30.09,10.0,South,11.5,-,N/A,,Clear,170,2013-11-09 07:52:00
2:52 AM,46.0,37.9,73,30.08,10.0,SSE,10.4,-,N/A,,Clear,160,2013-11-09 08:52:00
3:52 AM,46.0,37.9,73,30.08,10.0,South,10.4,-,N/A,,Mostly Cloudy,170,2013-11-09 09:52:00
4:52 AM,44.1,37.0,76,30.09,10.0,SSE,8.1,-,N/A,,Clear,160,2013-11-09 10:52:00
5:52 AM,42.1,37.0,82,30.12,10.0,SE,6.9,-,N/A,,Clear,140,2013-11-09 11:52:00
6:52 AM,44.1,37.0,76,30.14,10.0,South,9.2,-,N/A,,Clear,180,2013-11-09 12:52:00
7:52 AM,46.9,39.0,74,30.15,10.0,South,9.2,-,N/A,,Clear,170,2013-11-09 13:52:00
8:52 AM,52.0,39.9,63,30.16,10.0,SSW,11.5,-,N/A,,Clear,200,2013-11-09 14:52:00
9:52 AM,59.0,41.0,51,30.16,10.0,WSW,11.5,-,N/A,,Clear,240,2013-11-09 15:52:00
10:52 AM,62.1,39.9,44,30.17,10.0,West,13.8,-,N/A,,Clear,270,2013-11-09 16:52:00
11:52 AM,61.0,39.9,46,30.16,10.0,WNW,10.4,-,N/A,,Overcast,290,2013-11-09 17:52:00
12:52 PM,62.1,42.1,48,30.14,10.0,WNW,8.1,-,N/A,,Overcast,300,2013-11-09 18:52:00
1:52 PM,62.1,43.0,50,30.14,10.0,NW,8.1,-,N/A,,Overcast,310,2013-11-09 19:52:00
2:52 PM,64.0,43.0,46,30.15,10.0,West,5.8,-,N/A,,Clear,270,2013-11-09 20:52:00
3:52 PM,63.0,43.0,48,30.16,10.0,NW,5.8,-,N/A,,Clear,310,2013-11-09 21:52:00
4:52 PM,59.0,43.0,55,30.17,10.0,North,4.6,-,N/A,,Clear,350,2013-11-09 22:52:00
5:52 PM,52.0,43.0,71,30.20,10.0,Calm,Calm,-,N/A,,Mostly Cloudy,0,2013-11-09 23:52:00
6:52 PM,48.0,42.1,80,30.23,10.0,Calm,Calm,-,N/A,,Clear,0,2013-11-10 00:52:00
7:52 PM,44.1,39.9,85,30.24,10.0,Calm,Calm,-,N/A,,Clear,0,2013-11-10 01:52:00
8:52 PM,46.9,41.0,80,30.24,10.0,Calm,Calm,-,N/A,,Clear,0,2013-11-10 02:52:00
9:52 PM,44.1,39.9,85,30.25,10.0,Calm,Calm,-,N/A,,Clear,0,2013-11-10 03:52:00
10:52 PM,43.0,37.9,82,30.27,10.0,Calm,Calm,-,N/A,,Clear,0,2013-11-10 04:52:00
11:52 PM,43.0,39.0,86,30.28,10.0,Calm,Calm,-,N/A,,Clear,0,2013-11-10 05:52:00